sensor_id;sensor_type;location;lat;lon;timestamp;P1;durP1;ratioP1;P2;durP2;ratioP2
4106;SDS011;21906;50.812;7.132;2023-05-10T00:00:38;4.17;;;3.87;;
4106;SDS011;21906;50.812;7.132;2023-05-10T00:03:04;3.30;;;3.10;;
4106;SDS011;21906;50.812;7.132;2023-05-10T00:05:30;12.40;;;3.57;;
4106;SDS011;21906;50.812;7.132;2023-05-10T00:07:56;4.03;;;3.73;;
4106;SDS011;21906;50.812;7.132;2023-05-10T00:10:22;3.77;;;3.57;;
4106;SDS011;21906;50.812;7.132;2023-05-10T00:12:47;4.10;;;3.80;;
4106;SDS011;21906;50.812;7.132;2023-05-10T00:15:13;4.10;;;3.73;;
4106;SDS011;21906;50.812;7.132;2023-05-10T00:17:39;4.00;;;3.70;;
4106;SDS011;21906;50.812;7.132;2023-05-10T00:20:05;4.20;;;3.90;;
4106;SDS011;21906;50.812;7.132;2023-05-10T00:22:31;4.20;;;3.90;;
4106;SDS011;21906;50.812;7.132;2023-05-10T00:24:57;4.37;;;3.97;;
4106;SDS011;21906;50.812;7.132;2023-05-10T00:27:23;4.50;;;4.20;;
4106;SDS011;21906;50.812;7.132;2023-05-10T00:29:49;3.97;;;3.67;;
4106;SDS011;21906;50.812;7.132;2023-05-10T00:32:15;3.73;;;3.43;;
4106;SDS011;21906;50.812;7.132;2023-05-10T00:34:41;4.20;;;3.80;;
4106;SDS011;21906;50.812;7.132;2023-05-10T00:37:06;3.63;;;3.33;;
4106;SDS011;21906;50.812;7.132;2023-05-10T00:39:32;3.80;;;3.60;;
4106;SDS011;21906;50.812;7.132;2023-05-10T00:41:57;3.30;;;3.10;;
4106;SDS011;21906;50.812;7.132;2023-05-10T00:44:24;3.40;;;3.20;;
4106;SDS011;21906;50.812;7.132;2023-05-10T00:46:50;3.20;;;3.00;;
4106;SDS011;21906;50.812;7.132;2023-05-10T00:49:16;2.90;;;2.70;;
4106;SDS011;21906;50.812;7.132;2023-05-10T00:51:42;3.43;;;3.23;;
4106;SDS011;21906;50.812;7.132;2023-05-10T00:54:10;3.43;;;3.23;;
4106;SDS011;21906;50.812;7.132;2023-05-10T00:56:38;3.90;;;3.70;;
4106;SDS011;21906;50.812;7.132;2023-05-10T00:59:05;3.80;;;3.50;;
4106;SDS011;21906;50.812;7.132;2023-05-10T01:01:31;3.20;;;3.00;;
4106;SDS011;21906;50.812;7.132;2023-05-10T01:03:57;2.90;;;2.70;;
4106;SDS011;21906;50.812;7.132;2023-05-10T01:06:23;3.10;;;2.90;;
4106;SDS011;21906;50.812;7.132;2023-05-10T01:08:49;3.60;;;3.40;;
4106;SDS011;21906;50.812;7.132;2023-05-10T01:11:15;4.40;;;3.13;;
4106;SDS011;21906;50.812;7.132;2023-05-10T01:13:42;3.20;;;3.00;;
4106;SDS011;21906;50.812;7.132;2023-05-10T01:16:12;3.27;;;2.90;;
4106;SDS011;21906;50.812;7.132;2023-05-10T01:18:39;5.13;;;3.20;;
4106;SDS011;21906;50.812;7.132;2023-05-10T01:21:15;3.90;;;3.70;;
4106;SDS011;21906;50.812;7.132;2023-05-10T01:32:48;4.47;;;3.23;;
4106;SDS011;21906;50.812;7.132;2023-05-10T01:38:07;4.00;;;3.70;;
4106;SDS011;21906;50.812;7.132;2023-05-10T01:46:40;3.03;;;2.83;;
4106;SDS011;21906;50.812;7.132;2023-05-10T01:49:08;3.60;;;3.03;;
4106;SDS011;21906;50.812;7.132;2023-05-10T01:51:39;3.60;;;3.37;;
4106;SDS011;21906;50.812;7.132;2023-05-10T01:54:11;3.03;;;2.83;;
4106;SDS011;21906;50.812;7.132;2023-05-10T01:56:38;3.53;;;3.23;;
4106;SDS011;21906;50.812;7.132;2023-05-10T01:59:06;2.67;;;2.47;;
4106;SDS011;21906;50.812;7.132;2023-05-10T02:01:38;3.30;;;3.10;;
4106;SDS011;21906;50.812;7.132;2023-05-10T02:04:06;3.10;;;2.80;;
4106;SDS011;21906;50.812;7.132;2023-05-10T02:06:34;2.53;;;2.43;;
4106;SDS011;21906;50.812;7.132;2023-05-10T02:09:01;2.40;;;2.20;;
4106;SDS011;21906;50.812;7.132;2023-05-10T02:11:28;3.17;;;2.47;;
4106;SDS011;21906;50.812;7.132;2023-05-10T02:13:55;2.47;;;2.27;;
4106;SDS011;21906;50.812;7.132;2023-05-10T02:16:23;2.97;;;2.23;;
4106;SDS011;21906;50.812;7.132;2023-05-10T02:18:51;2.33;;;2.23;;
4106;SDS011;21906;50.812;7.132;2023-05-10T02:21:17;2.20;;;2.00;;
4106;SDS011;21906;50.812;7.132;2023-05-10T02:23:45;2.50;;;2.30;;
4106;SDS011;21906;50.812;7.132;2023-05-10T02:26:13;2.67;;;2.20;;
4106;SDS011;21906;50.812;7.132;2023-05-10T02:28:40;2.40;;;2.30;;
4106;SDS011;21906;50.812;7.132;2023-05-10T02:31:08;2.73;;;2.13;;
4106;SDS011;21906;50.812;7.132;2023-05-10T02:33:35;2.93;;;2.60;;
4106;SDS011;21906;50.812;7.132;2023-05-10T02:36:05;2.70;;;2.50;;
4106;SDS011;21906;50.812;7.132;2023-05-10T02:38:33;2.70;;;2.20;;
4106;SDS011;21906;50.812;7.132;2023-05-10T02:41:01;2.50;;;2.30;;
4106;SDS011;21906;50.812;7.132;2023-05-10T02:43:29;2.57;;;2.37;;
4106;SDS011;21906;50.812;7.132;2023-05-10T02:45:57;2.57;;;2.37;;
4106;SDS011;21906;50.812;7.132;2023-05-10T02:48:22;2.37;;;2.20;;
4106;SDS011;21906;50.812;7.132;2023-05-10T02:50:48;2.83;;;2.57;;
4106;SDS011;21906;50.812;7.132;2023-05-10T02:53:22;3.00;;;2.80;;
4106;SDS011;21906;50.812;7.132;2023-05-10T02:55:51;2.27;;;2.07;;
4106;SDS011;21906;50.812;7.132;2023-05-10T02:58:19;2.47;;;2.27;;
4106;SDS011;21906;50.812;7.132;2023-05-10T03:00:45;2.60;;;2.40;;
4106;SDS011;21906;50.812;7.132;2023-05-10T03:03:11;4.10;;;2.60;;
4106;SDS011;21906;50.812;7.132;2023-05-10T03:05:37;2.87;;;2.67;;
4106;SDS011;21906;50.812;7.132;2023-05-10T03:08:03;5.37;;;3.07;;
4106;SDS011;21906;50.812;7.132;2023-05-10T03:10:29;4.90;;;3.40;;
4106;SDS011;21906;50.812;7.132;2023-05-10T03:13:14;3.77;;;3.47;;
4106;SDS011;21906;50.812;7.132;2023-05-10T03:15:58;3.90;;;3.50;;
4106;SDS011;21906;50.812;7.132;2023-05-10T03:18:48;4.77;;;4.27;;
4106;SDS011;21906;50.812;7.132;2023-05-10T03:21:22;4.43;;;3.87;;
4106;SDS011;21906;50.812;7.132;2023-05-10T03:23:52;5.27;;;4.77;;
4106;SDS011;21906;50.812;7.132;2023-05-10T03:26:32;5.53;;;5.13;;
4106;SDS011;21906;50.812;7.132;2023-05-10T03:28:59;5.23;;;4.83;;
4106;SDS011;21906;50.812;7.132;2023-05-10T03:31:26;7.27;;;5.90;;
4106;SDS011;21906;50.812;7.132;2023-05-10T03:33:52;6.20;;;5.60;;
4106;SDS011;21906;50.812;7.132;2023-05-10T03:36:18;6.03;;;5.53;;
4106;SDS011;21906;50.812;7.132;2023-05-10T03:38:44;8.70;;;6.30;;
4106;SDS011;21906;50.812;7.132;2023-05-10T03:41:09;8.20;;;6.37;;
4106;SDS011;21906;50.812;7.132;2023-05-10T03:43:35;7.80;;;6.80;;
4106;SDS011;21906;50.812;7.132;2023-05-10T03:46:02;6.27;;;5.73;;
4106;SDS011;21906;50.812;7.132;2023-05-10T03:48:28;5.83;;;5.33;;
4106;SDS011;21906;50.812;7.132;2023-05-10T03:50:55;6.43;;;5.77;;
4106;SDS011;21906;50.812;7.132;2023-05-10T03:53:20;8.73;;;6.73;;
4106;SDS011;21906;50.812;7.132;2023-05-10T03:55:47;8.30;;;6.23;;
4106;SDS011;21906;50.812;7.132;2023-05-10T03:58:13;8.17;;;6.50;;
4106;SDS011;21906;50.812;7.132;2023-05-10T04:00:39;7.47;;;6.47;;
4106;SDS011;21906;50.812;7.132;2023-05-10T04:03:08;7.50;;;6.10;;
4106;SDS011;21906;50.812;7.132;2023-05-10T04:05:35;7.90;;;7.10;;
4106;SDS011;21906;50.812;7.132;2023-05-10T04:08:01;10.63;;;7.43;;
4106;SDS011;21906;50.812;7.132;2023-05-10T04:10:27;10.10;;;7.93;;
4106;SDS011;21906;50.812;7.132;2023-05-10T04:12:52;12.40;;;8.73;;
4106;SDS011;21906;50.812;7.132;2023-05-10T04:15:18;9.23;;;8.00;;
4106;SDS011;21906;50.812;7.132;2023-05-10T04:17:44;11.37;;;8.23;;
4106;SDS011;21906;50.812;7.132;2023-05-10T04:20:10;10.60;;;8.23;;
4106;SDS011;21906;50.812;7.132;2023-05-10T04:22:36;11.90;;;8.40;;
4106;SDS011;21906;50.812;7.132;2023-05-10T04:25:02;12.77;;;8.73;;
4106;SDS011;21906;50.812;7.132;2023-05-10T04:27:28;12.90;;;8.80;;
4106;SDS011;21906;50.812;7.132;2023-05-10T04:29:53;9.77;;;8.03;;
4106;SDS011;21906;50.812;7.132;2023-05-10T04:32:19;9.67;;;8.13;;
4106;SDS011;21906;50.812;7.132;2023-05-10T04:34:45;10.40;;;8.40;;
4106;SDS011;21906;50.812;7.132;2023-05-10T04:37:11;11.87;;;8.23;;
4106;SDS011;21906;50.812;7.132;2023-05-10T04:39:37;11.23;;;8.83;;
4106;SDS011;21906;50.812;7.132;2023-05-10T04:42:02;11.97;;;8.80;;
4106;SDS011;21906;50.812;7.132;2023-05-10T04:44:30;13.73;;;9.17;;
4106;SDS011;21906;50.812;7.132;2023-05-10T04:46:56;10.63;;;7.80;;
4106;SDS011;21906;50.812;7.132;2023-05-10T04:49:22;13.27;;;8.40;;
4106;SDS011;21906;50.812;7.132;2023-05-10T04:51:48;13.40;;;9.10;;
4106;SDS011;21906;50.812;7.132;2023-05-10T04:54:13;12.20;;;8.47;;
4106;SDS011;21906;50.812;7.132;2023-05-10T04:56:39;10.90;;;8.23;;
4106;SDS011;21906;50.812;7.132;2023-05-10T04:59:05;12.43;;;9.83;;
4106;SDS011;21906;50.812;7.132;2023-05-10T05:01:31;13.70;;;8.63;;
4106;SDS011;21906;50.812;7.132;2023-05-10T05:03:57;16.40;;;10.77;;
4106;SDS011;21906;50.812;7.132;2023-05-10T05:06:23;14.20;;;9.57;;
4106;SDS011;21906;50.812;7.132;2023-05-10T05:08:50;15.20;;;10.67;;
4106;SDS011;21906;50.812;7.132;2023-05-10T05:11:15;12.27;;;9.80;;
4106;SDS011;21906;50.812;7.132;2023-05-10T05:13:42;16.03;;;10.37;;
4106;SDS011;21906;50.812;7.132;2023-05-10T05:16:07;13.80;;;10.40;;
4106;SDS011;21906;50.812;7.132;2023-05-10T05:18:33;12.67;;;9.97;;
4106;SDS011;21906;50.812;7.132;2023-05-10T05:20:58;13.27;;;10.53;;
4106;SDS011;21906;50.812;7.132;2023-05-10T05:23:24;12.57;;;10.80;;
4106;SDS011;21906;50.812;7.132;2023-05-10T05:25:53;17.07;;;11.77;;
4106;SDS011;21906;50.812;7.132;2023-05-10T05:28:20;13.40;;;10.57;;
4106;SDS011;21906;50.812;7.132;2023-05-10T05:30:46;17.73;;;12.90;;
4106;SDS011;21906;50.812;7.132;2023-05-10T05:33:13;15.43;;;11.27;;
4106;SDS011;21906;50.812;7.132;2023-05-10T05:35:40;16.70;;;11.53;;
4106;SDS011;21906;50.812;7.132;2023-05-10T05:38:06;15.20;;;12.27;;
4106;SDS011;21906;50.812;7.132;2023-05-10T05:40:31;16.93;;;12.33;;
4106;SDS011;21906;50.812;7.132;2023-05-10T05:42:57;13.43;;;11.27;;
4106;SDS011;21906;50.812;7.132;2023-05-10T05:45:23;18.23;;;13.47;;
4106;SDS011;21906;50.812;7.132;2023-05-10T05:47:48;16.83;;;11.70;;
4106;SDS011;21906;50.812;7.132;2023-05-10T05:50:14;21.30;;;12.50;;
4106;SDS011;21906;50.812;7.132;2023-05-10T05:52:39;19.93;;;12.57;;
4106;SDS011;21906;50.812;7.132;2023-05-10T05:55:05;18.63;;;12.60;;
4106;SDS011;21906;50.812;7.132;2023-05-10T05:57:31;20.63;;;13.60;;
4106;SDS011;21906;50.812;7.132;2023-05-10T05:59:57;18.57;;;11.97;;
4106;SDS011;21906;50.812;7.132;2023-05-10T06:02:22;15.07;;;11.83;;
4106;SDS011;21906;50.812;7.132;2023-05-10T06:04:48;15.90;;;11.40;;
4106;SDS011;21906;50.812;7.132;2023-05-10T06:07:14;15.40;;;12.33;;
4106;SDS011;21906;50.812;7.132;2023-05-10T06:09:39;19.20;;;11.63;;
4106;SDS011;21906;50.812;7.132;2023-05-10T06:12:05;21.77;;;13.70;;
4106;SDS011;21906;50.812;7.132;2023-05-10T06:14:30;17.63;;;13.03;;
4106;SDS011;21906;50.812;7.132;2023-05-10T06:16:56;16.53;;;12.97;;
4106;SDS011;21906;50.812;7.132;2023-05-10T06:19:22;14.50;;;10.93;;
4106;SDS011;21906;50.812;7.132;2023-05-10T06:21:47;21.20;;;13.20;;
4106;SDS011;21906;50.812;7.132;2023-05-10T06:24:13;15.07;;;12.50;;
4106;SDS011;21906;50.812;7.132;2023-05-10T06:26:38;20.33;;;13.30;;
4106;SDS011;21906;50.812;7.132;2023-05-10T06:29:04;15.47;;;11.73;;
4106;SDS011;21906;50.812;7.132;2023-05-10T06:31:30;13.23;;;10.60;;
4106;SDS011;21906;50.812;7.132;2023-05-10T06:33:55;15.87;;;12.00;;
4106;SDS011;21906;50.812;7.132;2023-05-10T06:36:21;17.27;;;11.20;;
4106;SDS011;21906;50.812;7.132;2023-05-10T06:38:47;13.77;;;11.63;;
4106;SDS011;21906;50.812;7.132;2023-05-10T06:41:12;15.03;;;11.27;;
4106;SDS011;21906;50.812;7.132;2023-05-10T06:43:38;11.87;;;10.60;;
4106;SDS011;21906;50.812;7.132;2023-05-10T06:46:06;14.27;;;11.53;;
4106;SDS011;21906;50.812;7.132;2023-05-10T06:48:32;15.40;;;10.93;;
4106;SDS011;21906;50.812;7.132;2023-05-10T06:50:58;18.10;;;11.57;;
4106;SDS011;21906;50.812;7.132;2023-05-10T06:53:23;14.50;;;11.27;;
4106;SDS011;21906;50.812;7.132;2023-05-10T06:55:49;16.70;;;11.80;;
4106;SDS011;21906;50.812;7.132;2023-05-10T06:58:15;18.67;;;12.00;;
4106;SDS011;21906;50.812;7.132;2023-05-10T07:00:40;15.87;;;11.60;;
4106;SDS011;21906;50.812;7.132;2023-05-10T07:03:08;13.97;;;10.67;;
4106;SDS011;21906;50.812;7.132;2023-05-10T07:05:35;11.30;;;10.07;;
4106;SDS011;21906;50.812;7.132;2023-05-10T07:08:00;11.40;;;9.80;;
4106;SDS011;21906;50.812;7.132;2023-05-10T07:10:26;9.67;;;8.53;;
4106;SDS011;21906;50.812;7.132;2023-05-10T07:12:52;8.67;;;7.87;;
4106;SDS011;21906;50.812;7.132;2023-05-10T07:15:17;9.03;;;8.13;;
4106;SDS011;21906;50.812;7.132;2023-05-10T07:17:43;8.10;;;7.40;;
4106;SDS011;21906;50.812;7.132;2023-05-10T07:20:09;7.63;;;6.80;;
4106;SDS011;21906;50.812;7.132;2023-05-10T07:22:35;7.30;;;6.60;;
4106;SDS011;21906;50.812;7.132;2023-05-10T07:25:01;7.83;;;7.00;;
4106;SDS011;21906;50.812;7.132;2023-05-10T07:27:27;6.53;;;5.93;;
4106;SDS011;21906;50.812;7.132;2023-05-10T07:29:52;5.83;;;5.23;;
4106;SDS011;21906;50.812;7.132;2023-05-10T07:32:19;6.37;;;5.77;;
4106;SDS011;21906;50.812;7.132;2023-05-10T07:34:45;6.70;;;5.80;;
4106;SDS011;21906;50.812;7.132;2023-05-10T07:37:11;5.87;;;5.37;;
4106;SDS011;21906;50.812;7.132;2023-05-10T07:39:36;6.07;;;5.47;;
4106;SDS011;21906;50.812;7.132;2023-05-10T07:42:02;5.23;;;4.67;;
4106;SDS011;21906;50.812;7.132;2023-05-10T07:44:28;4.80;;;4.40;;
4106;SDS011;21906;50.812;7.132;2023-05-10T07:46:54;6.63;;;5.83;;
4106;SDS011;21906;50.812;7.132;2023-05-10T07:49:20;6.03;;;5.40;;
4106;SDS011;21906;50.812;7.132;2023-05-10T07:51:46;6.60;;;6.00;;
4106;SDS011;21906;50.812;7.132;2023-05-10T07:54:12;5.87;;;5.37;;
4106;SDS011;21906;50.812;7.132;2023-05-10T07:56:37;6.77;;;5.43;;
4106;SDS011;21906;50.812;7.132;2023-05-10T07:59:04;6.23;;;5.60;;
4106;SDS011;21906;50.812;7.132;2023-05-10T08:01:32;7.23;;;6.47;;
4106;SDS011;21906;50.812;7.132;2023-05-10T08:03:58;9.93;;;6.77;;
4106;SDS011;21906;50.812;7.132;2023-05-10T08:06:24;7.53;;;6.73;;
4106;SDS011;21906;50.812;7.132;2023-05-10T08:08:53;9.27;;;6.17;;
4106;SDS011;21906;50.812;7.132;2023-05-10T08:11:19;6.40;;;5.73;;
4106;SDS011;21906;50.812;7.132;2023-05-10T08:13:45;6.33;;;5.77;;
4106;SDS011;21906;50.812;7.132;2023-05-10T08:16:11;6.00;;;5.40;;
4106;SDS011;21906;50.812;7.132;2023-05-10T08:18:37;4.67;;;4.27;;
4106;SDS011;21906;50.812;7.132;2023-05-10T08:21:04;5.37;;;4.87;;
4106;SDS011;21906;50.812;7.132;2023-05-10T08:23:30;5.33;;;4.83;;
4106;SDS011;21906;50.812;7.132;2023-05-10T08:25:56;5.33;;;4.60;;
4106;SDS011;21906;50.812;7.132;2023-05-10T08:28:21;5.00;;;4.50;;
4106;SDS011;21906;50.812;7.132;2023-05-10T08:30:47;5.27;;;4.77;;
4106;SDS011;21906;50.812;7.132;2023-05-10T08:33:13;4.60;;;4.30;;
4106;SDS011;21906;50.812;7.132;2023-05-10T08:35:38;5.10;;;4.60;;
4106;SDS011;21906;50.812;7.132;2023-05-10T08:38:04;5.10;;;4.60;;
4106;SDS011;21906;50.812;7.132;2023-05-10T08:40:29;5.57;;;4.63;;
4106;SDS011;21906;50.812;7.132;2023-05-10T08:43:01;5.40;;;4.90;;
4106;SDS011;21906;50.812;7.132;2023-05-10T08:45:32;6.10;;;5.37;;
4106;SDS011;21906;50.812;7.132;2023-05-10T08:48:04;4.73;;;4.33;;
4106;SDS011;21906;50.812;7.132;2023-05-10T08:50:31;4.90;;;4.57;;
4106;SDS011;21906;50.812;7.132;2023-05-10T08:53:00;5.13;;;4.53;;
4106;SDS011;21906;50.812;7.132;2023-05-10T08:55:28;5.53;;;4.37;;
4106;SDS011;21906;50.812;7.132;2023-05-10T08:57:55;4.73;;;4.43;;
4106;SDS011;21906;50.812;7.132;2023-05-10T09:00:21;4.97;;;4.33;;
4106;SDS011;21906;50.812;7.132;2023-05-10T09:02:48;6.30;;;5.67;;
4106;SDS011;21906;50.812;7.132;2023-05-10T09:05:15;4.90;;;4.50;;
4106;SDS011;21906;50.812;7.132;2023-05-10T09:07:41;4.57;;;4.17;;
4106;SDS011;21906;50.812;7.132;2023-05-10T09:10:07;3.00;;;2.80;;
4106;SDS011;21906;50.812;7.132;2023-05-10T09:12:33;3.00;;;2.80;;
4106;SDS011;21906;50.812;7.132;2023-05-10T09:15:00;3.60;;;3.30;;
4106;SDS011;21906;50.812;7.132;2023-05-10T09:17:27;3.43;;;2.60;;
4106;SDS011;21906;50.812;7.132;2023-05-10T09:20:00;1.80;;;1.70;;
4106;SDS011;21906;50.812;7.132;2023-05-10T09:22:30;3.30;;;1.60;;
4106;SDS011;21906;50.812;7.132;2023-05-10T09:25:09;1.80;;;1.70;;
4106;SDS011;21906;50.812;7.132;2023-05-10T09:27:36;1.50;;;1.40;;
4106;SDS011;21906;50.812;7.132;2023-05-10T09:30:06;1.50;;;1.40;;
4106;SDS011;21906;50.812;7.132;2023-05-10T09:32:39;1.60;;;1.50;;
4106;SDS011;21906;50.812;7.132;2023-05-10T09:35:07;1.53;;;1.40;;
4106;SDS011;21906;50.812;7.132;2023-05-10T09:37:36;1.60;;;1.50;;
4106;SDS011;21906;50.812;7.132;2023-05-10T09:40:06;1.80;;;1.70;;
4106;SDS011;21906;50.812;7.132;2023-05-10T09:42:42;1.73;;;1.63;;
4106;SDS011;21906;50.812;7.132;2023-05-10T09:45:15;2.63;;;2.33;;
4106;SDS011;21906;50.812;7.132;2023-05-10T09:47:42;2.80;;;2.60;;
4106;SDS011;21906;50.812;7.132;2023-05-10T09:50:07;2.50;;;2.40;;
4106;SDS011;21906;50.812;7.132;2023-05-10T09:55:21;1.87;;;1.77;;
4106;SDS011;21906;50.812;7.132;2023-05-10T09:57:49;2.50;;;2.30;;
4106;SDS011;21906;50.812;7.132;2023-05-10T10:00:23;2.10;;;2.00;;
4106;SDS011;21906;50.812;7.132;2023-05-10T10:02:55;2.20;;;2.10;;
4106;SDS011;21906;50.812;7.132;2023-05-10T10:05:28;2.37;;;2.17;;
4106;SDS011;21906;50.812;7.132;2023-05-10T10:07:58;3.20;;;3.00;;
4106;SDS011;21906;50.812;7.132;2023-05-10T10:10:25;3.20;;;2.67;;
4106;SDS011;21906;50.812;7.132;2023-05-10T10:12:52;3.67;;;3.37;;
4106;SDS011;21906;50.812;7.132;2023-05-10T10:15:18;4.73;;;4.30;;
4106;SDS011;21906;50.812;7.132;2023-05-10T10:17:48;6.53;;;5.67;;
4106;SDS011;21906;50.812;7.132;2023-05-10T10:20:15;7.27;;;6.30;;
4106;SDS011;21906;50.812;7.132;2023-05-10T10:22:41;8.03;;;7.23;;
4106;SDS011;21906;50.812;7.132;2023-05-10T10:25:09;10.63;;;8.50;;
4106;SDS011;21906;50.812;7.132;2023-05-10T10:27:40;9.17;;;7.67;;
4106;SDS011;21906;50.812;7.132;2023-05-10T10:35:57;12.90;;;9.43;;
4106;SDS011;21906;50.812;7.132;2023-05-10T10:38:24;12.10;;;8.27;;
4106;SDS011;21906;50.812;7.132;2023-05-10T10:41:08;12.57;;;8.90;;
4106;SDS011;21906;50.812;7.132;2023-05-10T10:43:35;8.33;;;7.37;;
4106;SDS011;21906;50.812;7.132;2023-05-10T10:48:49;8.80;;;7.90;;
4106;SDS011;21906;50.812;7.132;2023-05-10T10:51:32;8.70;;;7.20;;
4106;SDS011;21906;50.812;7.132;2023-05-10T10:53:58;8.80;;;7.43;;
4106;SDS011;21906;50.812;7.132;2023-05-10T10:56:35;8.00;;;7.10;;
4106;SDS011;21906;50.812;7.132;2023-05-10T10:59:00;8.70;;;7.40;;
4106;SDS011;21906;50.812;7.132;2023-05-10T11:01:26;7.63;;;6.80;;
4106;SDS011;21906;50.812;7.132;2023-05-10T11:06:30;7.03;;;6.33;;
4106;SDS011;21906;50.812;7.132;2023-05-10T11:08:57;7.93;;;7.13;;
4106;SDS011;21906;50.812;7.132;2023-05-10T11:11:23;7.27;;;6.57;;
4106;SDS011;21906;50.812;7.132;2023-05-10T11:13:49;5.90;;;5.40;;
4106;SDS011;21906;50.812;7.132;2023-05-10T11:16:17;3.77;;;3.57;;
4106;SDS011;21906;50.812;7.132;2023-05-10T11:19:03;4.27;;;3.97;;
4106;SDS011;21906;50.812;7.132;2023-05-10T11:21:30;4.40;;;3.90;;
4106;SDS011;21906;50.812;7.132;2023-05-10T11:23:58;4.50;;;4.10;;
4106;SDS011;21906;50.812;7.132;2023-05-10T11:26:25;4.60;;;4.30;;
4106;SDS011;21906;50.812;7.132;2023-05-10T11:28:55;5.20;;;4.80;;
4106;SDS011;21906;50.812;7.132;2023-05-10T11:31:21;5.60;;;5.20;;
4106;SDS011;21906;50.812;7.132;2023-05-10T11:33:51;5.60;;;5.10;;
4106;SDS011;21906;50.812;7.132;2023-05-10T11:36:29;4.60;;;4.30;;
4106;SDS011;21906;50.812;7.132;2023-05-10T11:38:58;7.47;;;4.27;;
4106;SDS011;21906;50.812;7.132;2023-05-10T11:41:25;3.37;;;3.17;;
4106;SDS011;21906;50.812;7.132;2023-05-10T11:43:53;3.20;;;3.00;;
4106;SDS011;21906;50.812;7.132;2023-05-10T11:46:20;3.73;;;3.30;;
4106;SDS011;21906;50.812;7.132;2023-05-10T11:48:50;4.20;;;3.70;;
4106;SDS011;21906;50.812;7.132;2023-05-10T11:51:21;3.00;;;2.80;;
4106;SDS011;21906;50.812;7.132;2023-05-10T11:53:49;2.77;;;2.57;;
4106;SDS011;21906;50.812;7.132;2023-05-10T11:56:18;2.73;;;2.57;;
4106;SDS011;21906;50.812;7.132;2023-05-10T11:58:52;3.50;;;3.30;;
4106;SDS011;21906;50.812;7.132;2023-05-10T12:01:20;3.63;;;3.00;;
4106;SDS011;21906;50.812;7.132;2023-05-10T12:03:46;3.03;;;2.83;;
4106;SDS011;21906;50.812;7.132;2023-05-10T12:06:12;3.90;;;3.70;;
4106;SDS011;21906;50.812;7.132;2023-05-10T12:08:43;3.50;;;2.97;;
4106;SDS011;21906;50.812;7.132;2023-05-10T12:11:11;2.90;;;2.70;;
4106;SDS011;21906;50.812;7.132;2023-05-10T12:13:39;3.00;;;2.80;;
4106;SDS011;21906;50.812;7.132;2023-05-10T12:16:23;3.40;;;3.20;;
4106;SDS011;21906;50.812;7.132;2023-05-10T12:18:55;2.77;;;2.57;;
4106;SDS011;21906;50.812;7.132;2023-05-10T12:21:22;3.80;;;3.50;;
4106;SDS011;21906;50.812;7.132;2023-05-10T12:23:49;4.20;;;3.90;;
4106;SDS011;21906;50.812;7.132;2023-05-10T12:26:16;3.83;;;3.53;;
4106;SDS011;21906;50.812;7.132;2023-05-10T12:28:41;3.60;;;3.33;;
4106;SDS011;21906;50.812;7.132;2023-05-10T12:31:07;4.53;;;3.87;;
4106;SDS011;21906;50.812;7.132;2023-05-10T12:33:37;3.30;;;2.93;;
4106;SDS011;21906;50.812;7.132;2023-05-10T12:36:11;3.60;;;3.30;;
4106;SDS011;21906;50.812;7.132;2023-05-10T12:38:39;4.10;;;3.40;;
4106;SDS011;21906;50.812;7.132;2023-05-10T12:41:12;3.03;;;2.83;;
4106;SDS011;21906;50.812;7.132;2023-05-10T12:43:40;3.23;;;3.03;;
4106;SDS011;21906;50.812;7.132;2023-05-10T12:48:31;3.37;;;3.10;;
4106;SDS011;21906;50.812;7.132;2023-05-10T12:50:59;3.77;;;3.50;;
4106;SDS011;21906;50.812;7.132;2023-05-10T12:53:25;3.07;;;2.87;;
4106;SDS011;21906;50.812;7.132;2023-05-10T12:55:50;3.77;;;3.47;;
4106;SDS011;21906;50.812;7.132;2023-05-10T12:58:16;4.00;;;3.70;;
4106;SDS011;21906;50.812;7.132;2023-05-10T13:00:42;4.13;;;3.93;;
4106;SDS011;21906;50.812;7.132;2023-05-10T13:03:08;3.53;;;3.23;;
4106;SDS011;21906;50.812;7.132;2023-05-10T13:05:35;3.33;;;3.07;;
4106;SDS011;21906;50.812;7.132;2023-05-10T13:08:01;3.13;;;2.93;;
4106;SDS011;21906;50.812;7.132;2023-05-10T13:10:29;2.50;;;2.30;;
4106;SDS011;21906;50.812;7.132;2023-05-10T13:12:55;3.50;;;3.30;;
4106;SDS011;21906;50.812;7.132;2023-05-10T13:15:22;2.50;;;2.40;;
4106;SDS011;21906;50.812;7.132;2023-05-10T13:17:47;2.13;;;2.03;;
4106;SDS011;21906;50.812;7.132;2023-05-10T13:20:13;2.67;;;2.57;;
4106;SDS011;21906;50.812;7.132;2023-05-10T13:22:39;2.40;;;2.30;;
4106;SDS011;21906;50.812;7.132;2023-05-10T13:25:05;2.90;;;2.70;;
4106;SDS011;21906;50.812;7.132;2023-05-10T13:27:31;2.63;;;2.43;;
4106;SDS011;21906;50.812;7.132;2023-05-10T13:29:57;2.33;;;2.23;;
4106;SDS011;21906;50.812;7.132;2023-05-10T13:32:24;2.50;;;2.40;;
4106;SDS011;21906;50.812;7.132;2023-05-10T13:34:50;2.57;;;2.40;;
4106;SDS011;21906;50.812;7.132;2023-05-10T13:37:16;2.27;;;2.17;;
4106;SDS011;21906;50.812;7.132;2023-05-10T13:39:42;2.50;;;2.20;;
4106;SDS011;21906;50.812;7.132;2023-05-10T13:42:07;2.30;;;2.10;;
4106;SDS011;21906;50.812;7.132;2023-05-10T13:44:33;2.23;;;2.13;;
4106;SDS011;21906;50.812;7.132;2023-05-10T13:46:59;2.57;;;2.37;;
4106;SDS011;21906;50.812;7.132;2023-05-10T13:49:24;2.50;;;2.30;;
4106;SDS011;21906;50.812;7.132;2023-05-10T13:51:50;2.67;;;2.30;;
4106;SDS011;21906;50.812;7.132;2023-05-10T13:54:16;2.37;;;2.27;;
4106;SDS011;21906;50.812;7.132;2023-05-10T13:56:44;3.07;;;2.00;;
4106;SDS011;21906;50.812;7.132;2023-05-10T13:59:12;1.83;;;1.73;;
4106;SDS011;21906;50.812;7.132;2023-05-10T14:01:38;1.93;;;1.83;;
4106;SDS011;21906;50.812;7.132;2023-05-10T14:04:05;2.30;;;2.10;;
4106;SDS011;21906;50.812;7.132;2023-05-10T14:06:31;2.60;;;2.00;;
4106;SDS011;21906;50.812;7.132;2023-05-10T14:08:56;2.30;;;2.20;;
4106;SDS011;21906;50.812;7.132;2023-05-10T14:11:22;2.50;;;2.40;;
4106;SDS011;21906;50.812;7.132;2023-05-10T14:13:48;2.53;;;2.30;;
4106;SDS011;21906;50.812;7.132;2023-05-10T14:16:14;2.03;;;1.93;;
4106;SDS011;21906;50.812;7.132;2023-05-10T14:18:39;2.23;;;2.00;;
4106;SDS011;21906;50.812;7.132;2023-05-10T14:21:05;2.57;;;2.10;;
4106;SDS011;21906;50.812;7.132;2023-05-10T14:23:31;2.10;;;2.00;;
4106;SDS011;21906;50.812;7.132;2023-05-10T14:25:57;1.80;;;1.70;;
4106;SDS011;21906;50.812;7.132;2023-05-10T14:28:22;1.80;;;1.70;;
4106;SDS011;21906;50.812;7.132;2023-05-10T14:30:49;2.00;;;1.90;;
4106;SDS011;21906;50.812;7.132;2023-05-10T14:33:16;1.70;;;1.60;;
4106;SDS011;21906;50.812;7.132;2023-05-10T14:35:42;2.00;;;1.73;;
4106;SDS011;21906;50.812;7.132;2023-05-10T14:38:07;2.60;;;2.37;;
4106;SDS011;21906;50.812;7.132;2023-05-10T14:40:33;2.40;;;2.20;;
4106;SDS011;21906;50.812;7.132;2023-05-10T14:42:59;2.63;;;2.40;;
4106;SDS011;21906;50.812;7.132;2023-05-10T14:45:25;3.60;;;2.50;;
4106;SDS011;21906;50.812;7.132;2023-05-10T14:47:51;4.70;;;2.53;;
4106;SDS011;21906;50.812;7.132;2023-05-10T14:50:17;2.73;;;2.53;;
4106;SDS011;21906;50.812;7.132;2023-05-10T14:52:43;2.63;;;2.20;;
4106;SDS011;21906;50.812;7.132;2023-05-10T14:55:09;2.40;;;2.20;;
4106;SDS011;21906;50.812;7.132;2023-05-10T14:57:35;3.33;;;3.03;;
4106;SDS011;21906;50.812;7.132;2023-05-10T15:00:01;2.10;;;2.00;;
4106;SDS011;21906;50.812;7.132;2023-05-10T15:02:27;2.43;;;2.33;;
4106;SDS011;21906;50.812;7.132;2023-05-10T15:04:53;2.80;;;2.63;;
4106;SDS011;21906;50.812;7.132;2023-05-10T15:07:18;2.70;;;2.50;;
4106;SDS011;21906;50.812;7.132;2023-05-10T15:09:44;2.47;;;2.27;;
4106;SDS011;21906;50.812;7.132;2023-05-10T15:12:10;2.57;;;2.37;;
4106;SDS011;21906;50.812;7.132;2023-05-10T15:14:36;2.30;;;2.10;;
4106;SDS011;21906;50.812;7.132;2023-05-10T15:17:02;2.70;;;2.17;;
4106;SDS011;21906;50.812;7.132;2023-05-10T15:19:28;1.80;;;1.70;;
4106;SDS011;21906;50.812;7.132;2023-05-10T15:21:54;2.43;;;1.97;;
4106;SDS011;21906;50.812;7.132;2023-05-10T15:24:20;1.90;;;1.80;;
4106;SDS011;21906;50.812;7.132;2023-05-10T15:26:46;2.00;;;1.90;;
4106;SDS011;21906;50.812;7.132;2023-05-10T15:29:12;3.80;;;2.10;;
4106;SDS011;21906;50.812;7.132;2023-05-10T15:31:44;2.20;;;2.00;;